sensor_id;sensor_type;location;lat;lon;timestamp;P1;durP1;ratioP1;P2;durP2;ratioP2
8919;SDS011;4495;42.644;23.274;2024-01-06T00:02:03;2.67;;;1.40;;
8919;SDS011;4495;42.644;23.274;2024-01-06T00:04:29;3.80;;;1.60;;
8919;SDS011;4495;42.644;23.274;2024-01-06T00:06:54;7.07;;;1.75;;
8919;SDS011;4495;42.644;23.274;2024-01-06T00:09:20;2.42;;;1.40;;
8919;SDS011;4495;42.644;23.274;2024-01-06T00:11:45;1.60;;;0.70;;
8919;SDS011;4495;42.644;23.274;2024-01-06T00:14:11;3.30;;;0.90;;
8919;SDS011;4495;42.644;23.274;2024-01-06T00:16:36;2.40;;;0.80;;
8919;SDS011;4495;42.644;23.274;2024-01-06T00:19:01;1.33;;;0.90;;
8919;SDS011;4495;42.644;23.274;2024-01-06T00:21:27;2.22;;;0.75;;
8919;SDS011;4495;42.644;23.274;2024-01-06T00:23:53;2.42;;;0.95;;
8919;SDS011;4495;42.644;23.274;2024-01-06T00:26:20;3.40;;;0.80;;
8919;SDS011;4495;42.644;23.274;2024-01-06T00:28:46;2.08;;;0.80;;
8919;SDS011;4495;42.644;23.274;2024-01-06T00:31:14;2.38;;;0.80;;
8919;SDS011;4495;42.644;23.274;2024-01-06T00:33:41;1.30;;;0.50;;
8919;SDS011;4495;42.644;23.274;2024-01-06T00:36:06;2.03;;;0.90;;
8919;SDS011;4495;42.644;23.274;2024-01-06T00:38:32;2.00;;;1.02;;
8919;SDS011;4495;42.644;23.274;2024-01-06T00:40:57;1.63;;;0.80;;
8919;SDS011;4495;42.644;23.274;2024-01-06T00:43:23;1.65;;;0.93;;
8919;SDS011;4495;42.644;23.274;2024-01-06T00:45:48;2.47;;;1.10;;
8919;SDS011;4495;42.644;23.274;2024-01-06T00:48:14;3.42;;;0.90;;
8919;SDS011;4495;42.644;23.274;2024-01-06T00:50:39;2.08;;;0.77;;
8919;SDS011;4495;42.644;23.274;2024-01-06T00:53:05;2.88;;;0.77;;
8919;SDS011;4495;42.644;23.274;2024-01-06T00:55:31;1.05;;;0.65;;
8919;SDS011;4495;42.644;23.274;2024-01-06T00:57:56;1.63;;;0.73;;
8919;SDS011;4495;42.644;23.274;2024-01-06T01:00:21;1.52;;;0.77;;
8919;SDS011;4495;42.644;23.274;2024-01-06T01:02:48;2.17;;;1.00;;
8919;SDS011;4495;42.644;23.274;2024-01-06T01:05:13;1.83;;;0.95;;
8919;SDS011;4495;42.644;23.274;2024-01-06T01:07:39;3.50;;;1.00;;
8919;SDS011;4495;42.644;23.274;2024-01-06T01:10:04;2.20;;;0.73;;
8919;SDS011;4495;42.644;23.274;2024-01-06T01:12:30;1.40;;;0.70;;
8919;SDS011;4495;42.644;23.274;2024-01-06T01:14:56;1.67;;;0.88;;
8919;SDS011;4495;42.644;23.274;2024-01-06T01:17:21;1.77;;;0.60;;
8919;SDS011;4495;42.644;23.274;2024-01-06T01:19:47;2.80;;;1.38;;
8919;SDS011;4495;42.644;23.274;2024-01-06T01:22:12;0.90;;;0.75;;
8919;SDS011;4495;42.644;23.274;2024-01-06T01:24:38;0.77;;;0.70;;
8919;SDS011;4495;42.644;23.274;2024-01-06T01:27:04;2.00;;;0.75;;
8919;SDS011;4495;42.644;23.274;2024-01-06T01:29:30;1.17;;;0.80;;
8919;SDS011;4495;42.644;23.274;2024-01-06T01:31:56;1.60;;;0.70;;
8919;SDS011;4495;42.644;23.274;2024-01-06T01:34:21;1.52;;;0.80;;
8919;SDS011;4495;42.644;23.274;2024-01-06T01:36:46;2.90;;;1.00;;
8919;SDS011;4495;42.644;23.274;2024-01-06T01:39:12;1.50;;;0.80;;
8919;SDS011;4495;42.644;23.274;2024-01-06T01:41:37;3.40;;;1.00;;
8919;SDS011;4495;42.644;23.274;2024-01-06T01:44:03;4.25;;;1.40;;
8919;SDS011;4495;42.644;23.274;2024-01-06T01:46:29;1.65;;;0.80;;
8919;SDS011;4495;42.644;23.274;2024-01-06T01:48:55;1.75;;;0.90;;
8919;SDS011;4495;42.644;23.274;2024-01-06T01:51:21;1.90;;;0.70;;
8919;SDS011;4495;42.644;23.274;2024-01-06T01:53:48;1.40;;;0.75;;
8919;SDS011;4495;42.644;23.274;2024-01-06T01:56:14;2.45;;;1.10;;
8919;SDS011;4495;42.644;23.274;2024-01-06T01:58:41;4.07;;;0.90;;
8919;SDS011;4495;42.644;23.274;2024-01-06T02:01:07;2.17;;;1.00;;
8919;SDS011;4495;42.644;23.274;2024-01-06T02:03:33;3.30;;;0.93;;
8919;SDS011;4495;42.644;23.274;2024-01-06T02:05:59;2.60;;;0.90;;
8919;SDS011;4495;42.644;23.274;2024-01-06T02:08:25;4.15;;;1.35;;
8919;SDS011;4495;42.644;23.274;2024-01-06T02:10:51;1.95;;;0.80;;
8919;SDS011;4495;42.644;23.274;2024-01-06T02:13:18;4.20;;;1.00;;
8919;SDS011;4495;42.644;23.274;2024-01-06T02:15:44;2.00;;;1.20;;
8919;SDS011;4495;42.644;23.274;2024-01-06T02:18:09;2.38;;;1.15;;
8919;SDS011;4495;42.644;23.274;2024-01-06T02:20:35;1.70;;;1.10;;
8919;SDS011;4495;42.644;23.274;2024-01-06T02:23:00;4.57;;;1.77;;
8919;SDS011;4495;42.644;23.274;2024-01-06T02:25:26;3.40;;;0.95;;
8919;SDS011;4495;42.644;23.274;2024-01-06T02:27:52;1.83;;;1.02;;
8919;SDS011;4495;42.644;23.274;2024-01-06T02:30:17;1.92;;;0.90;;
8919;SDS011;4495;42.644;23.274;2024-01-06T02:32:42;3.33;;;1.27;;
8919;SDS011;4495;42.644;23.274;2024-01-06T02:35:08;1.98;;;0.93;;
8919;SDS011;4495;42.644;23.274;2024-01-06T02:37:33;1.48;;;0.75;;
8919;SDS011;4495;42.644;23.274;2024-01-06T02:39:58;3.72;;;0.90;;
8919;SDS011;4495;42.644;23.274;2024-01-06T02:42:24;3.65;;;1.30;;
8919;SDS011;4495;42.644;23.274;2024-01-06T02:44:50;2.50;;;1.05;;
8919;SDS011;4495;42.644;23.274;2024-01-06T02:47:16;1.65;;;1.05;;
8919;SDS011;4495;42.644;23.274;2024-01-06T02:49:41;1.10;;;0.85;;
8919;SDS011;4495;42.644;23.274;2024-01-06T02:52:07;1.92;;;0.90;;
8919;SDS011;4495;42.644;23.274;2024-01-06T02:54:32;1.42;;;0.98;;
8919;SDS011;4495;42.644;23.274;2024-01-06T02:56:58;3.08;;;0.93;;
8919;SDS011;4495;42.644;23.274;2024-01-06T02:59:23;1.98;;;1.08;;
8919;SDS011;4495;42.644;23.274;2024-01-06T03:01:48;3.25;;;1.13;;
8919;SDS011;4495;42.644;23.274;2024-01-06T03:04:14;2.75;;;1.05;;
8919;SDS011;4495;42.644;23.274;2024-01-06T03:06:39;2.17;;;0.73;;
8919;SDS011;4495;42.644;23.274;2024-01-06T03:09:05;4.05;;;1.05;;
8919;SDS011;4495;42.644;23.274;2024-01-06T03:11:30;5.57;;;2.38;;
8919;SDS011;4495;42.644;23.274;2024-01-06T03:13:55;2.08;;;1.20;;
8919;SDS011;4495;42.644;23.274;2024-01-06T03:16:21;1.83;;;0.98;;
8919;SDS011;4495;42.644;23.274;2024-01-06T03:18:46;2.60;;;1.00;;
8919;SDS011;4495;42.644;23.274;2024-01-06T03:21:18;1.85;;;1.05;;
8919;SDS011;4495;42.644;23.274;2024-01-06T03:23:45;2.03;;;1.02;;
8919;SDS011;4495;42.644;23.274;2024-01-06T03:26:11;3.25;;;0.98;;
8919;SDS011;4495;42.644;23.274;2024-01-06T03:28:37;1.77;;;0.80;;
8919;SDS011;4495;42.644;23.274;2024-01-06T03:31:02;1.63;;;0.90;;
8919;SDS011;4495;42.644;23.274;2024-01-06T03:33:27;2.05;;;1.00;;
8919;SDS011;4495;42.644;23.274;2024-01-06T03:35:53;1.73;;;1.02;;
8919;SDS011;4495;42.644;23.274;2024-01-06T03:38:18;2.40;;;1.02;;
8919;SDS011;4495;42.644;23.274;2024-01-06T03:40:44;1.98;;;1.13;;
8919;SDS011;4495;42.644;23.274;2024-01-06T03:43:09;2.30;;;0.90;;
8919;SDS011;4495;42.644;23.274;2024-01-06T03:45:34;2.53;;;1.00;;
8919;SDS011;4495;42.644;23.274;2024-01-06T03:48:00;1.65;;;0.90;;
8919;SDS011;4495;42.644;23.274;2024-01-06T03:50:25;2.80;;;0.90;;
8919;SDS011;4495;42.644;23.274;2024-01-06T03:52:50;1.77;;;0.75;;
8919;SDS011;4495;42.644;23.274;2024-01-06T03:55:16;4.13;;;0.90;;
8919;SDS011;4495;42.644;23.274;2024-01-06T03:57:42;1.70;;;1.00;;
8919;SDS011;4495;42.644;23.274;2024-01-06T04:00:07;2.45;;;1.00;;
8919;SDS011;4495;42.644;23.274;2024-01-06T04:02:33;3.25;;;0.93;;
8919;SDS011;4495;42.644;23.274;2024-01-06T04:04:59;2.65;;;1.20;;
8919;SDS011;4495;42.644;23.274;2024-01-06T04:07:24;1.67;;;0.90;;
8919;SDS011;4495;42.644;23.274;2024-01-06T04:09:50;2.45;;;1.40;;
8919;SDS011;4495;42.644;23.274;2024-01-06T04:12:15;2.97;;;0.80;;
8919;SDS011;4495;42.644;23.274;2024-01-06T04:14:41;2.85;;;0.90;;
8919;SDS011;4495;42.644;23.274;2024-01-06T04:17:06;2.03;;;0.88;;
8919;SDS011;4495;42.644;23.274;2024-01-06T04:19:31;2.58;;;1.00;;
8919;SDS011;4495;42.644;23.274;2024-01-06T04:21:57;1.80;;;1.00;;
8919;SDS011;4495;42.644;23.274;2024-01-06T04:24:22;2.75;;;1.17;;
8919;SDS011;4495;42.644;23.274;2024-01-06T04:26:48;2.65;;;0.90;;
8919;SDS011;4495;42.644;23.274;2024-01-06T04:29:14;1.60;;;0.80;;
8919;SDS011;4495;42.644;23.274;2024-01-06T04:31:40;2.40;;;0.95;;
8919;SDS011;4495;42.644;23.274;2024-01-06T04:34:06;1.52;;;0.82;;
8919;SDS011;4495;42.644;23.274;2024-01-06T04:36:31;1.80;;;1.00;;
8919;SDS011;4495;42.644;23.274;2024-01-06T04:38:57;2.10;;;0.90;;
8919;SDS011;4495;42.644;23.274;2024-01-06T04:41:22;3.80;;;1.27;;
8919;SDS011;4495;42.644;23.274;2024-01-06T04:43:48;2.80;;;1.38;;
8919;SDS011;4495;42.644;23.274;2024-01-06T04:46:13;2.17;;;0.90;;
8919;SDS011;4495;42.644;23.274;2024-01-06T04:48:40;3.95;;;1.20;;
8919;SDS011;4495;42.644;23.274;2024-01-06T04:51:06;3.42;;;1.50;;
8919;SDS011;4495;42.644;23.274;2024-01-06T04:53:35;2.47;;;1.30;;
8919;SDS011;4495;42.644;23.274;2024-01-06T04:56:01;2.63;;;1.25;;
8919;SDS011;4495;42.644;23.274;2024-01-06T04:58:26;2.53;;;1.13;;
8919;SDS011;4495;42.644;23.274;2024-01-06T05:00:52;4.63;;;1.42;;
8919;SDS011;4495;42.644;23.274;2024-01-06T05:03:17;2.55;;;1.42;;
8919;SDS011;4495;42.644;23.274;2024-01-06T05:05:43;3.38;;;1.50;;
8919;SDS011;4495;42.644;23.274;2024-01-06T05:08:08;4.03;;;1.85;;
8919;SDS011;4495;42.644;23.274;2024-01-06T05:10:34;6.32;;;2.88;;
8919;SDS011;4495;42.644;23.274;2024-01-06T05:12:59;4.90;;;2.20;;
8919;SDS011;4495;42.644;23.274;2024-01-06T05:15:25;4.97;;;1.80;;
8919;SDS011;4495;42.644;23.274;2024-01-06T05:17:50;1.95;;;1.23;;
8919;SDS011;4495;42.644;23.274;2024-01-06T05:20:16;2.35;;;1.30;;
8919;SDS011;4495;42.644;23.274;2024-01-06T05:22:41;3.70;;;1.27;;
8919;SDS011;4495;42.644;23.274;2024-01-06T05:25:06;1.88;;;1.23;;
8919;SDS011;4495;42.644;23.274;2024-01-06T05:27:32;2.15;;;1.15;;
8919;SDS011;4495;42.644;23.274;2024-01-06T05:29:57;3.38;;;1.40;;
8919;SDS011;4495;42.644;23.274;2024-01-06T05:32:23;3.03;;;1.30;;
8919;SDS011;4495;42.644;23.274;2024-01-06T05:34:48;2.20;;;0.90;;
8919;SDS011;4495;42.644;23.274;2024-01-06T05:37:14;2.03;;;1.30;;
8919;SDS011;4495;42.644;23.274;2024-01-06T05:39:39;1.98;;;1.08;;
8919;SDS011;4495;42.644;23.274;2024-01-06T05:42:05;2.40;;;0.95;;
8919;SDS011;4495;42.644;23.274;2024-01-06T05:44:31;2.58;;;1.20;;
8919;SDS011;4495;42.644;23.274;2024-01-06T05:47:00;2.45;;;1.00;;
8919;SDS011;4495;42.644;23.274;2024-01-06T05:49:26;6.63;;;2.83;;
8919;SDS011;4495;42.644;23.274;2024-01-06T05:51:51;4.13;;;2.42;;
8919;SDS011;4495;42.644;23.274;2024-01-06T05:54:17;4.70;;;2.03;;
8919;SDS011;4495;42.644;23.274;2024-01-06T05:56:42;4.38;;;1.60;;
8919;SDS011;4495;42.644;23.274;2024-01-06T05:59:07;2.45;;;1.00;;
8919;SDS011;4495;42.644;23.274;2024-01-06T06:01:33;2.63;;;1.10;;
8919;SDS011;4495;42.644;23.274;2024-01-06T06:03:58;1.65;;;1.00;;
8919;SDS011;4495;42.644;23.274;2024-01-06T06:06:24;1.48;;;0.85;;
8919;SDS011;4495;42.644;23.274;2024-01-06T06:08:49;2.28;;;1.20;;
8919;SDS011;4495;42.644;23.274;2024-01-06T06:11:15;2.28;;;1.20;;
8919;SDS011;4495;42.644;23.274;2024-01-06T06:13:41;3.58;;;1.48;;
8919;SDS011;4495;42.644;23.274;2024-01-06T06:16:08;16.10;;;7.22;;
8919;SDS011;4495;42.644;23.274;2024-01-06T06:18:34;6.78;;;3.85;;
8919;SDS011;4495;42.644;23.274;2024-01-06T06:21:00;5.65;;;2.53;;
8919;SDS011;4495;42.644;23.274;2024-01-06T06:23:29;2.95;;;1.17;;
8919;SDS011;4495;42.644;23.274;2024-01-06T06:25:55;1.63;;;0.98;;
8919;SDS011;4495;42.644;23.274;2024-01-06T06:28:21;3.60;;;1.13;;
8919;SDS011;4495;42.644;23.274;2024-01-06T06:30:46;1.73;;;0.93;;
8919;SDS011;4495;42.644;23.274;2024-01-06T06:33:12;1.45;;;0.90;;
8919;SDS011;4495;42.644;23.274;2024-01-06T06:35:37;1.80;;;1.00;;
8919;SDS011;4495;42.644;23.274;2024-01-06T06:38:03;1.98;;;1.20;;
8919;SDS011;4495;42.644;23.274;2024-01-06T06:40:28;4.40;;;1.40;;
8919;SDS011;4495;42.644;23.274;2024-01-06T06:42:55;1.70;;;1.10;;
8919;SDS011;4495;42.644;23.274;2024-01-06T06:45:20;2.92;;;1.10;;
8919;SDS011;4495;42.644;23.274;2024-01-06T06:47:48;1.63;;;1.17;;
8919;SDS011;4495;42.644;23.274;2024-01-06T06:50:15;2.20;;;1.48;;
8919;SDS011;4495;42.644;23.274;2024-01-06T06:52:41;3.42;;;1.45;;
8919;SDS011;4495;42.644;23.274;2024-01-06T06:55:07;4.57;;;1.83;;
8919;SDS011;4495;42.644;23.274;2024-01-06T06:57:33;4.18;;;1.40;;
8919;SDS011;4495;42.644;23.274;2024-01-06T06:59:58;4.70;;;1.42;;
8919;SDS011;4495;42.644;23.274;2024-01-06T07:04:50;6.47;;;2.70;;
8919;SDS011;4495;42.644;23.274;2024-01-06T07:07:16;3.90;;;2.17;;
8919;SDS011;4495;42.644;23.274;2024-01-06T07:09:41;6.10;;;2.75;;
8919;SDS011;4495;42.644;23.274;2024-01-06T07:12:07;9.48;;;3.53;;
8919;SDS011;4495;42.644;23.274;2024-01-06T07:14:33;7.10;;;3.40;;
8919;SDS011;4495;42.644;23.274;2024-01-06T07:16:58;5.95;;;2.80;;
8919;SDS011;4495;42.644;23.274;2024-01-06T07:19:24;6.20;;;3.60;;
8919;SDS011;4495;42.644;23.274;2024-01-06T07:21:49;4.20;;;2.97;;
8919;SDS011;4495;42.644;23.274;2024-01-06T07:24:15;4.65;;;2.65;;
8919;SDS011;4495;42.644;23.274;2024-01-06T07:26:41;2.75;;;1.48;;
8919;SDS011;4495;42.644;23.274;2024-01-06T07:29:06;3.95;;;1.60;;
8919;SDS011;4495;42.644;23.274;2024-01-06T07:33:58;2.75;;;1.60;;
8919;SDS011;4495;42.644;23.274;2024-01-06T07:36:23;3.30;;;1.60;;
8919;SDS011;4495;42.644;23.274;2024-01-06T07:38:49;2.58;;;1.33;;
8919;SDS011;4495;42.644;23.274;2024-01-06T07:41:14;3.72;;;1.95;;
8919;SDS011;4495;42.644;23.274;2024-01-06T07:43:40;2.95;;;1.75;;
8919;SDS011;4495;42.644;23.274;2024-01-06T07:46:05;9.63;;;3.13;;
8919;SDS011;4495;42.644;23.274;2024-01-06T07:50:57;7.88;;;2.42;;
8919;SDS011;4495;42.644;23.274;2024-01-06T07:53:22;4.90;;;2.67;;
8919;SDS011;4495;42.644;23.274;2024-01-06T07:55:48;4.18;;;2.08;;
8919;SDS011;4495;42.644;23.274;2024-01-06T07:58:14;5.95;;;2.10;;
8919;SDS011;4495;42.644;23.274;2024-01-06T08:03:06;2.50;;;1.30;;
8919;SDS011;4495;42.644;23.274;2024-01-06T08:05:31;4.38;;;1.75;;
8919;SDS011;4495;42.644;23.274;2024-01-06T08:07:57;4.13;;;1.58;;
8919;SDS011;4495;42.644;23.274;2024-01-06T08:10:23;4.32;;;1.77;;
8919;SDS011;4495;42.644;23.274;2024-01-06T08:12:48;2.92;;;1.35;;
8919;SDS011;4495;42.644;23.274;2024-01-06T08:15:13;6.10;;;1.77;;
8919;SDS011;4495;42.644;23.274;2024-01-06T08:17:39;4.40;;;1.73;;
8919;SDS011;4495;42.644;23.274;2024-01-06T08:20:06;6.15;;;2.33;;
8919;SDS011;4495;42.644;23.274;2024-01-06T08:22:33;3.45;;;1.98;;
8919;SDS011;4495;42.644;23.274;2024-01-06T08:24:59;3.45;;;2.17;;
8919;SDS011;4495;42.644;23.274;2024-01-06T08:27:24;4.22;;;2.20;;
8919;SDS011;4495;42.644;23.274;2024-01-06T08:29:50;6.13;;;3.10;;
8919;SDS011;4495;42.644;23.274;2024-01-06T08:32:15;9.40;;;3.35;;
8919;SDS011;4495;42.644;23.274;2024-01-06T08:34:41;8.13;;;3.45;;
8919;SDS011;4495;42.644;23.274;2024-01-06T08:37:07;7.75;;;3.47;;
8919;SDS011;4495;42.644;23.274;2024-01-06T08:39:32;6.88;;;3.20;;
8919;SDS011;4495;42.644;23.274;2024-01-06T08:41:58;8.52;;;3.40;;
8919;SDS011;4495;42.644;23.274;2024-01-06T08:44:23;7.15;;;3.25;;
8919;SDS011;4495;42.644;23.274;2024-01-06T08:46:49;10.93;;;5.05;;
8919;SDS011;4495;42.644;23.274;2024-01-06T08:49:15;11.15;;;4.72;;
8919;SDS011;4495;42.644;23.274;2024-01-06T08:51:41;14.65;;;4.70;;
8919;SDS011;4495;42.644;23.274;2024-01-06T08:54:06;7.55;;;3.75;;
8919;SDS011;4495;42.644;23.274;2024-01-06T08:56:32;12.60;;;6.35;;
8919;SDS011;4495;42.644;23.274;2024-01-06T08:58:58;13.57;;;7.68;;
8919;SDS011;4495;42.644;23.274;2024-01-06T09:01:24;16.15;;;8.07;;
8919;SDS011;4495;42.644;23.274;2024-01-06T09:03:49;18.50;;;8.07;;
8919;SDS011;4495;42.644;23.274;2024-01-06T09:06:15;17.90;;;8.35;;
8919;SDS011;4495;42.644;23.274;2024-01-06T09:08:40;15.50;;;7.38;;
8919;SDS011;4495;42.644;23.274;2024-01-06T09:11:06;16.63;;;8.00;;
8919;SDS011;4495;42.644;23.274;2024-01-06T09:13:31;14.63;;;8.52;;
8919;SDS011;4495;42.644;23.274;2024-01-06T09:15:57;13.20;;;6.63;;
8919;SDS011;4495;42.644;23.274;2024-01-06T09:18:23;15.32;;;7.40;;
8919;SDS011;4495;42.644;23.274;2024-01-06T09:20:50;12.73;;;6.53;;
8919;SDS011;4495;42.644;23.274;2024-01-06T09:23:15;14.00;;;6.70;;
8919;SDS011;4495;42.644;23.274;2024-01-06T09:25:41;15.93;;;6.47;;
8919;SDS011;4495;42.644;23.274;2024-01-06T09:28:06;16.08;;;6.72;;
8919;SDS011;4495;42.644;23.274;2024-01-06T09:30:32;14.20;;;6.82;;
8919;SDS011;4495;42.644;23.274;2024-01-06T09:32:57;14.63;;;8.57;;
8919;SDS011;4495;42.644;23.274;2024-01-06T09:35:23;16.30;;;8.65;;
8919;SDS011;4495;42.644;23.274;2024-01-06T09:37:49;19.52;;;7.97;;
8919;SDS011;4495;42.644;23.274;2024-01-06T09:40:14;15.38;;;7.82;;
8919;SDS011;4495;42.644;23.274;2024-01-06T09:42:46;25.77;;;10.75;;
8919;SDS011;4495;42.644;23.274;2024-01-06T09:45:11;17.30;;;9.90;;
8919;SDS011;4495;42.644;23.274;2024-01-06T09:47:37;20.00;;;10.80;;
8919;SDS011;4495;42.644;23.274;2024-01-06T09:50:06;20.67;;;9.68;;
8919;SDS011;4495;42.644;23.274;2024-01-06T09:52:35;17.88;;;7.97;;
8919;SDS011;4495;42.644;23.274;2024-01-06T09:55:11;13.05;;;8.27;;
8919;SDS011;4495;42.644;23.274;2024-01-06T09:57:37;15.98;;;8.48;;
8919;SDS011;4495;42.644;23.274;2024-01-06T10:02:29;14.93;;;7.53;;
8919;SDS011;4495;42.644;23.274;2024-01-06T10:04:57;15.10;;;7.82;;
8919;SDS011;4495;42.644;23.274;2024-01-06T10:07:23;15.05;;;7.55;;
8919;SDS011;4495;42.644;23.274;2024-01-06T10:09:51;14.75;;;7.93;;
8919;SDS011;4495;42.644;23.274;2024-01-06T10:12:29;17.92;;;7.97;;
8919;SDS011;4495;42.644;23.274;2024-01-06T10:14:54;15.63;;;7.05;;
8919;SDS011;4495;42.644;23.274;2024-01-06T10:17:19;12.38;;;7.00;;
8919;SDS011;4495;42.644;23.274;2024-01-06T10:19:46;17.80;;;6.95;;
8919;SDS011;4495;42.644;23.274;2024-01-06T10:22:13;12.15;;;7.28;;
8919;SDS011;4495;42.644;23.274;2024-01-06T10:24:38;13.35;;;7.55;;
8919;SDS011;4495;42.644;23.274;2024-01-06T10:27:04;16.90;;;7.53;;
8919;SDS011;4495;42.644;23.274;2024-01-06T10:29:30;11.48;;;6.82;;
8919;SDS011;4495;42.644;23.274;2024-01-06T10:31:55;15.43;;;6.70;;
8919;SDS011;4495;42.644;23.274;2024-01-06T10:34:24;11.73;;;6.45;;
8919;SDS011;4495;42.644;23.274;2024-01-06T10:36:50;18.42;;;6.30;;
8919;SDS011;4495;42.644;23.274;2024-01-06T10:39:17;11.30;;;5.20;;
8919;SDS011;4495;42.644;23.274;2024-01-06T10:41:43;11.00;;;6.13;;
8919;SDS011;4495;42.644;23.274;2024-01-06T10:44:10;7.88;;;4.50;;
8919;SDS011;4495;42.644;23.274;2024-01-06T10:46:36;11.27;;;5.57;;
8919;SDS011;4495;42.644;23.274;2024-01-06T10:49:04;14.45;;;7.00;;
8919;SDS011;4495;42.644;23.274;2024-01-06T10:51:33;15.50;;;8.57;;
8919;SDS011;4495;42.644;23.274;2024-01-06T10:54:00;12.55;;;6.90;;
8919;SDS011;4495;42.644;23.274;2024-01-06T10:56:26;14.52;;;7.57;;
8919;SDS011;4495;42.644;23.274;2024-01-06T10:59:01;17.23;;;7.35;;
8919;SDS011;4495;42.644;23.274;2024-01-06T11:01:28;19.85;;;6.90;;
8919;SDS011;4495;42.644;23.274;2024-01-06T11:03:54;13.43;;;6.07;;
8919;SDS011;4495;42.644;23.274;2024-01-06T11:06:20;9.30;;;5.63;;
8919;SDS011;4495;42.644;23.274;2024-01-06T11:09:04;10.77;;;5.93;;
8919;SDS011;4495;42.644;23.274;2024-01-06T11:11:31;10.93;;;5.43;;
8919;SDS011;4495;42.644;23.274;2024-01-06T11:14:30;12.57;;;5.63;;
8919;SDS011;4495;42.644;23.274;2024-01-06T11:16:49;17.83;;;7.30;;
8919;SDS011;4495;42.644;23.274;2024-01-06T11:24:55;18.13;;;8.45;;
8919;SDS011;4495;42.644;23.274;2024-01-06T11:27:26;19.55;;;8.77;;
8919;SDS011;4495;42.644;23.274;2024-01-06T11:29:55;16.23;;;8.40;;
8919;SDS011;4495;42.644;23.274;2024-01-06T11:32:39;20.58;;;8.77;;
8919;SDS011;4495;42.644;23.274;2024-01-06T11:35:08;24.17;;;9.75;;
8919;SDS011;4495;42.644;23.274;2024-01-06T11:42:46;15.48;;;7.78;;
8919;SDS011;4495;42.644;23.274;2024-01-06T11:45:49;12.88;;;7.15;;
8919;SDS011;4495;42.644;23.274;2024-01-06T11:48:16;14.27;;;6.93;;
8919;SDS011;4495;42.644;23.274;2024-01-06T11:50:42;13.32;;;6.78;;
8919;SDS011;4495;42.644;23.274;2024-01-06T11:53:08;16.48;;;8.52;;
8919;SDS011;4495;42.644;23.274;2024-01-06T11:55:35;15.85;;;9.35;;
8919;SDS011;4495;42.644;23.274;2024-01-06T11:58:01;17.00;;;9.50;;
8919;SDS011;4495;42.644;23.274;2024-01-06T12:00:28;16.75;;;8.82;;
8919;SDS011;4495;42.644;23.274;2024-01-06T12:02:57;22.15;;;8.77;;
8919;SDS011;4495;42.644;23.274;2024-01-06T12:05:26;20.45;;;9.63;;
8919;SDS011;4495;42.644;23.274;2024-01-06T12:07:55;16.55;;;8.90;;
8919;SDS011;4495;42.644;23.274;2024-01-06T12:10:23;16.77;;;8.30;;
8919;SDS011;4495;42.644;23.274;2024-01-06T12:13:02;18.77;;;9.55;;
8919;SDS011;4495;42.644;23.274;2024-01-06T12:15:32;14.70;;;9.10;;
8919;SDS011;4495;42.644;23.274;2024-01-06T12:17:58;16.75;;;8.80;;
8919;SDS011;4495;42.644;23.274;2024-01-06T12:20:24;15.15;;;8.38;;
8919;SDS011;4495;42.644;23.274;2024-01-06T12:22:51;15.60;;;8.90;;
8919;SDS011;4495;42.644;23.274;2024-01-06T12:25:18;14.73;;;8.52;;
8919;SDS011;4495;42.644;23.274;2024-01-06T12:27:45;15.40;;;8.77;;
8919;SDS011;4495;42.644;23.274;2024-01-06T12:30:18;22.20;;;9.32;;
8919;SDS011;4495;42.644;23.274;2024-01-06T12:32:45;17.00;;;8.68;;
8919;SDS011;4495;42.644;23.274;2024-01-06T12:35:12;16.08;;;8.63;;
8919;SDS011;4495;42.644;23.274;2024-01-06T12:37:39;18.23;;;9.13;;
8919;SDS011;4495;42.644;23.274;2024-01-06T12:40:04;19.55;;;9.05;;
8919;SDS011;4495;42.644;23.274;2024-01-06T12:42:30;19.75;;;9.57;;
8919;SDS011;4495;42.644;23.274;2024-01-06T12:44:56;19.17;;;9.15;;
8919;SDS011;4495;42.644;23.274;2024-01-06T12:47:21;20.65;;;8.30;;
8919;SDS011;4495;42.644;23.274;2024-01-06T12:49:49;17.23;;;8.27;;
8919;SDS011;4495;42.644;23.274;2024-01-06T12:52:14;17.27;;;7.50;;
8919;SDS011;4495;42.644;23.274;2024-01-06T12:54:40;15.55;;;8.45;;
8919;SDS011;4495;42.644;23.274;2024-01-06T12:57:07;14.70;;;8.10;;
8919;SDS011;4495;42.644;23.274;2024-01-06T12:59:32;19.73;;;8.45;;
8919;SDS011;4495;42.644;23.274;2024-01-06T13:01:58;18.33;;;8.48;;
8919;SDS011;4495;42.644;23.274;2024-01-06T13:04:23;19.85;;;7.97;;
8919;SDS011;4495;42.644;23.274;2024-01-06T13:06:49;20.45;;;8.13;;
8919;SDS011;4495;42.644;23.274;2024-01-06T13:09:14;19.60;;;8.65;;
8919;SDS011;4495;42.644;23.274;2024-01-06T13:11:43;23.02;;;9.40;;
8919;SDS011;4495;42.644;23.274;2024-01-06T13:14:11;15.95;;;9.35;;
8919;SDS011;4495;42.644;23.274;2024-01-06T13:16:37;17.85;;;9.70;;
8919;SDS011;4495;42.644;23.274;2024-01-06T13:19:02;14.70;;;8.63;;
8919;SDS011;4495;42.644;23.274;2024-01-06T13:21:29;19.00;;;8.60;;
8919;SDS011;4495;42.644;23.274;2024-01-06T13:23:55;17.33;;;8.73;;
8919;SDS011;4495;42.644;23.274;2024-01-06T13:26:25;17.13;;;9.20;;
8919;SDS011;4495;42.644;23.274;2024-01-06T13:28:52;22.17;;;9.15;;
8919;SDS011;4495;42.644;23.274;2024-01-06T13:31:19;19.70;;;9.25;;
8919;SDS011;4495;42.644;23.274;2024-01-06T13:33:45;18.95;;;9.38;;
8919;SDS011;4495;42.644;23.274;2024-01-06T13:36:11;15.95;;;9.63;;
8919;SDS011;4495;42.644;23.274;2024-01-06T13:38:37;18.25;;;9.82;;
8919;SDS011;4495;42.644;23.274;2024-01-06T13:41:03;22.50;;;9.80;;
8919;SDS011;4495;42.644;23.274;2024-01-06T13:43:28;21.48;;;9.55;;
8919;SDS011;4495;42.644;23.274;2024-01-06T13:45:54;21.23;;;8.88;;
8919;SDS011;4495;42.644;23.274;2024-01-06T13:48:20;20.08;;;8.80;;
8919;SDS011;4495;42.644;23.274;2024-01-06T13:50:45;16.63;;;9.07;;
8919;SDS011;4495;42.644;23.274;2024-01-06T13:53:11;20.30;;;9.77;;
8919;SDS011;4495;42.644;23.274;2024-01-06T13:55:36;21.60;;;9.18;;
8919;SDS011;4495;42.644;23.274;2024-01-06T13:58:02;18.77;;;9.52;;
8919;SDS011;4495;42.644;23.274;2024-01-06T14:00:29;16.20;;;8.82;;
8919;SDS011;4495;42.644;23.274;2024-01-06T14:02:54;23.00;;;9.82;;
8919;SDS011;4495;42.644;23.274;2024-01-06T14:05:21;21.13;;;9.25;;
8919;SDS011;4495;42.644;23.274;2024-01-06T14:07:47;17.33;;;8.65;;
8919;SDS011;4495;42.644;23.274;2024-01-06T14:10:15;18.52;;;7.97;;
8919;SDS011;4495;42.644;23.274;2024-01-06T14:12:40;13.77;;;7.60;;
8919;SDS011;4495;42.644;23.274;2024-01-06T14:15:07;19.30;;;8.00;;
8919;SDS011;4495;42.644;23.274;2024-01-06T14:17:33;16.40;;;8.05;;
8919;SDS011;4495;42.644;23.274;2024-01-06T14:19:58;12.75;;;8.02;;
8919;SDS011;4495;42.644;23.274;2024-01-06T14:22:25;16.85;;;8.48;;
8919;SDS011;4495;42.644;23.274;2024-01-06T14:24:51;21.42;;;8.50;;
8919;SDS011;4495;42.644;23.274;2024-01-06T14:27:16;15.68;;;8.38;;
8919;SDS011;4495;42.644;23.274;2024-01-06T14:29:42;18.60;;;7.32;;
8919;SDS011;4495;42.644;23.274;2024-01-06T14:32:07;19.42;;;7.90;;
8919;SDS011;4495;42.644;23.274;2024-01-06T14:34:33;17.55;;;7.80;;
8919;SDS011;4495;42.644;23.274;2024-01-06T14:36:59;15.57;;;7.30;;
8919;SDS011;4495;42.644;23.274;2024-01-06T14:39:24;15.50;;;6.97;;
8919;SDS011;4495;42.644;23.274;2024-01-06T14:41:50;15.00;;;6.82;;
8919;SDS011;4495;42.644;23.274;2024-01-06T14:44:17;15.88;;;6.47;;
8919;SDS011;4495;42.644;23.274;2024-01-06T14:46:45;9.32;;;4.28;;
8919;SDS011;4495;42.644;23.274;2024-01-06T14:49:11;10.27;;;3.70;;
8919;SDS011;4495;42.644;23.274;2024-01-06T14:51:36;5.32;;;3.08;;
8919;SDS011;4495;42.644;23.274;2024-01-06T14:54:01;6.85;;;3.35;;
8919;SDS011;4495;42.644;23.274;2024-01-06T14:56:27;10.25;;;4.18;;
8919;SDS011;4495;42.644;23.274;2024-01-06T14:58:52;6.47;;;3.83;;
8919;SDS011;4495;42.644;23.274;2024-01-06T15:01:18;7.40;;;3.97;;
8919;SDS011;4495;42.644;23.274;2024-01-06T15:03:43;9.32;;;4.32;;
8919;SDS011;4495;42.644;23.274;2024-01-06T15:06:09;8.07;;;3.92;;
8919;SDS011;4495;42.644;23.274;2024-01-06T15:08:34;7.45;;;3.83;;
8919;SDS011;4495;42.644;23.274;2024-01-06T15:11:00;7.25;;;3.72;;
8919;SDS011;4495;42.644;23.274;2024-01-06T15:13:27;6.35;;;3.42;;